Latest Weather Observations for Tocal

IDN60801

Issued at 10:03 pm EDT Tuesday 24 January 2017 (issued every 30 minutes, with the page automatically refreshed every 10 minutes)

About weather observations | Map of weather stations | Latest weather observations for NSW | Other Formats
Station Details ID: 061250 Name: TOCAL AWS Lat: -32.63 Lon: 151.59 Height: 30.0 m
Data from the previous 72 hours. | See also: Recent months at Tocal
Date/Time
EDT
Temp
°C
App
Temp
°C
Dew
Point
°C
Rel
Hum
%
Delta-T
°C
Wind Press
QNH
hPa
Press
MSL
hPa
Rain since
9am
mm
Dir  Spd
km/h
Gust
km/h
Spd
kts
Gust
kts
24/10:00pm 24.5 27.1 22.6 89 1.3 S 13 24 7 13 - - 2.6
24/09:30pm 24.7 27.8 22.8 89 1.3 S 11 24 6 13 - - 2.6
24/09:00pm 25.0 27.4 22.9 88 1.4 S 15 24 8 13 - - 2.6
24/08:30pm 25.0 26.7 23.1 89 1.3 S 19 28 10 15 - - 2.6
24/08:00pm 25.5 27.2 23.1 86 1.6 S 19 30 10 16 - - 2.6
24/07:30pm 26.6 29.5 23.2 81 2.3 S 13 24 7 13 - - 2.6
24/07:00pm 30.4 32.8 21.6 59 5.9 S 11 19 6 10 - - 0.0
24/06:30pm 30.1 32.8 22.1 62 5.4 SE 11 17 6 9 - - 0.0
24/06:00pm 30.4 32.2 21.8 60 5.8 SSE 15 32 8 17 - - 0.0
24/05:30pm 32.9 32.8 19.9 46 8.6 SSE 20 37 11 20 - - 0.0
24/05:26pm 33.4 33.1 19.1 42 9.4 SSE 19 35 10 19 - - 0.0
24/05:00pm 38.8 39.8 17.7 29 13.8 E 9 15 5 8 - - 0.0
24/04:30pm 38.1 39.3 18.2 31 13.1 SSE 9 17 5 9 - - 0.0
24/04:00pm 38.0 38.2 17.6 30 13.3 SSW 13 17 7 9 - - 0.0
24/03:30pm 37.7 37.6 17.8 31 13.0 W 15 26 8 14 - - 0.0
24/03:00pm 38.3 37.7 17.6 29 13.5 W 17 28 9 15 - - 0.0
24/02:30pm 38.5 36.1 16.4 27 14.2 WNW 24 41 13 22 - - 0.0
24/02:00pm 39.1 35.4 16.0 25 14.8 NNW 30 44 16 24 - - 0.0
24/01:44pm 39.6 36.2 15.8 24 15.2 NW 28 50 15 27 - - 0.0
24/01:30pm 40.6 38.0 15.8 23 15.9 WNW 24 43 13 23 - - 0.0
24/01:00pm 39.2 34.7 15.0 24 15.3 NNW 32 56 17 30 - - 0.0
24/12:38pm 39.6 35.9 14.9 23 15.6 NW 28 48 15 26 - - 0.0
24/12:30pm 39.0 36.1 15.1 24 15.1 NW 24 39 13 21 - - 0.0
24/12:00pm 38.8 34.2 15.0 24 15.0 NW 33 52 18 28 - - 0.0
24/11:30am 38.4 34.1 14.4 24 15.0 NW 30 50 16 27 - - 0.0
24/11:13am 38.2 34.3 14.3 24 14.9 NNW 28 46 15 25 - - 0.0
24/11:00am 38.1 34.4 13.9 23 15.0 NW 26 43 14 23 - - 0.0
24/10:30am 36.2 31.8 13.0 24 14.1 NNW 28 37 15 20 - - 0.0
24/10:00am 35.9 31.5 13.0 25 13.9 NW 28 48 15 26 - - 0.0
24/09:36am 35.2 30.4 12.9 26 13.5 NW 30 48 16 26 - - 0.0
24/09:30am 34.9 29.4 12.6 26 13.4 NW 33 48 18 26 - - 0.0
24/09:06am 34.3 30.0 13.1 27 12.8 NW 28 46 15 25 - - 0.0
24/09:00am 34.2 29.3 12.7 27 12.9 NW 30 43 16 23 - - 0.0
24/08:30am 30.9 32.7 18.3 47 8.1 E 6 9 3 5 - - 0.0
24/08:00am 27.4 28.9 18.8 59 5.5 ESE 9 11 5 6 - - 0.0
24/07:30am 26.2 28.5 17.8 60 5.3 SSE 2 7 1 4 - - 0.0
24/07:00am 22.5 25.0 17.3 72 3.2 CALM 0 7 0 4 - - 0.0
24/06:30am 22.2 23.3 17.2 73 3.1 W 7 7 4 4 - - 0.0
24/06:00am 22.6 23.9 17.1 71 3.4 NW 6 7 3 4 - - 0.0
24/05:30am 21.2 22.6 17.3 78 2.4 NNW 6 7 3 4 - - 0.0
24/05:00am 22.1 23.4 17.2 74 3.0 WNW 6 6 3 3 - - 0.0
24/04:30am 23.5 24.8 17.0 67 4.0 WSW 6 7 3 4 - - 0.0
24/04:00am 22.5 25.0 17.3 72 3.2 CALM 0 0 0 0 - - 0.0
24/03:30am 23.5 26.0 17.2 67 3.9 CALM 0 0 0 0 - - 0.0
24/03:00am 24.3 26.9 17.4 65 4.3 CALM 0 0 0 0 - - 0.0
24/02:30am 25.5 27.6 17.1 59 5.2 SSW 2 7 1 4 - - 0.0
24/02:00am 26.8 28.1 17.2 55 6.0 WSW 6 9 3 5 - - 0.0
24/01:30am 28.0 28.3 16.0 48 7.4 NE 9 13 5 7 - - 0.0
24/01:00am 28.2 27.8 16.1 47 7.5 NNE 13 17 7 9 - - 0.0
24/12:30am 28.3 27.4 15.8 46 7.7 NNE 15 20 8 11 - - 0.0
24/12:00am 29.2 29.7 15.6 43 8.4 NNW 7 13 4 7 - - 0.0
 
Date/Time
EDT
Temp
°C
App
Temp
°C
Dew
Point
°C
Rel
Hum
%
Delta-T
°C
Wind Press
QNH
hPa
Press
MSL
hPa
Rain since
9am
mm
Dir  Spd
km/h
Gust
km/h
Spd
kts
Gust
kts
23/11:30pm 29.1 29.9 16.4 46 7.9 SSW 7 11 4 6 - - 0.0
23/11:00pm 29.2 29.8 15.8 44 8.3 SSW 7 9 4 5 - - 0.0
23/10:30pm 29.4 30.1 16.0 44 8.3 NNW 7 9 4 5 - - 0.0
23/10:00pm 29.5 29.4 15.9 43 8.4 NE 11 19 6 10 - - 0.0
23/09:30pm 30.4 29.1 15.9 41 9.0 NE 17 24 9 13 - - 0.0
23/09:00pm 31.0 29.2 15.9 40 9.4 NE 20 30 11 16 - - 0.0
23/08:30pm 31.8 30.4 15.5 37 10.1 NE 17 24 9 13 - - 0.0
23/08:00pm 32.9 31.4 15.2 34 11.0 NE 17 26 9 14 - - 0.0
23/07:30pm 33.6 31.8 15.5 33 11.3 NE 19 32 10 17 - - 0.0
23/07:00pm 34.7 32.6 15.1 31 12.2 ENE 20 32 11 17 - - 0.0
23/06:30pm 35.1 33.9 15.1 30 12.5 ENE 15 28 8 15 - - 0.0
23/06:00pm 35.9 34.6 14.9 28 13.1 E 15 24 8 13 - - 0.0
23/05:30pm 35.6 35.5 17.9 35 11.5 S 15 26 8 14 - - 0.0
23/05:00pm 36.0 35.6 17.2 33 12.1 S 15 24 8 13 - - 0.0
23/04:30pm 35.8 35.2 16.7 32 12.2 SSE 15 22 8 12 - - 0.0
23/04:00pm 36.1 35.3 17.0 32 12.3 SSE 17 28 9 15 - - 0.0
23/03:30pm 35.9 34.5 15.6 30 12.8 SSE 17 24 9 13 - - 0.0
23/03:00pm 35.9 35.6 15.4 29 12.9 E 11 17 6 9 - - 0.0
23/02:30pm 36.0 35.5 14.8 28 13.2 ENE 11 19 6 10 - - 0.0
23/02:00pm 35.8 35.5 14.5 28 13.2 NNE 9 19 5 10 - - 0.0
23/01:30pm 34.5 34.8 15.9 33 11.7 WNW 9 15 5 8 - - 0.0
23/01:00pm 33.2 33.9 17.0 38 10.3 ENE 9 15 5 8 - - 0.0
23/12:30pm 31.4 32.2 17.4 43 8.9 E 9 13 5 7 - - 0.0
23/12:00pm 30.6 31.4 17.4 45 8.4 SSE 9 17 5 9 - - 0.0
23/11:30am 29.8 31.3 18.1 49 7.5 SE 7 11 4 6 - - 0.0
23/11:00am 28.1 29.5 17.9 54 6.5 N 7 15 4 8 - - 0.0
23/10:30am 27.2 28.3 17.9 56 5.9 ENE 9 13 5 7 - - 0.0
23/10:00am 25.6 27.2 17.8 62 4.9 N 6 9 3 5 - - 0.0
23/09:30am 24.2 25.8 18.3 69 3.7 ENE 7 11 4 6 - - 0.0
23/09:00am 23.0 24.6 18.2 74 3.0 E 7 13 4 7 - - 0.0
23/08:30am 21.5 23.0 18.0 80 2.2 ENE 7 9 4 5 - - 0.0
23/08:00am 19.6 21.9 17.6 88 1.2 N 2 6 1 3 - - 0.0
23/07:30am 17.5 19.9 17.0 97 0.3 CALM 0 0 0 0 - - 0.0
23/07:00am 16.4 18.1 16.1 98 0.2 WNW 2 7 1 4 - - 0.0
23/06:30am 16.1 16.7 15.8 98 0.2 W 7 9 4 5 - - 0.0
23/06:00am 16.5 18.6 16.2 98 0.2 CALM 0 0 0 0 - - 0.0
23/05:30am 16.4 18.4 15.9 97 0.3 CALM 0 0 0 0 - - 0.0
23/05:00am 16.7 18.4 16.2 97 0.3 SW 2 6 1 3 - - 0.0
23/04:30am 17.0 18.4 16.3 96 0.4 WNW 4 7 2 4 - - 0.0
23/04:00am 17.7 19.2 16.7 94 0.6 WNW 4 6 2 3 - - 0.0
23/03:30am 18.2 19.1 16.5 90 1.0 NW 7 9 4 5 - - 0.0
23/03:00am 19.4 20.7 17.1 86 1.4 SW 6 7 3 4 - - 0.0
23/02:30am 19.8 21.9 17.2 85 1.6 S 2 7 1 4 - - 0.0
23/02:00am 20.3 21.6 17.5 84 1.7 SE 7 11 4 6 - - 0.0
23/01:30am 20.9 21.8 17.5 81 2.1 ESE 9 13 5 7 - - 0.0
23/01:00am 21.4 22.8 17.3 77 2.5 ESE 6 9 3 5 - - 0.0
23/12:30am 21.5 22.4 17.6 78 2.4 E 9 15 5 8 - - 0.0
23/12:00am 21.8 21.1 17.4 76 2.7 ENE 17 24 9 13 - - 0.0
 
Date/Time
EDT
Temp
°C
App
Temp
°C
Dew
Point
°C
Rel
Hum
%
Delta-T
°C
Wind Press
QNH
hPa
Press
MSL
hPa
Rain since
9am
mm
Dir  Spd
km/h
Gust
km/h
Spd
kts
Gust
kts
22/11:30pm 22.1 22.1 17.2 74 3.0 ENE 13 20 7 11 - - 0.0
22/11:00pm 22.3 23.0 17.1 72 3.2 ENE 9 15 5 8 - - 0.0
22/10:30pm 22.6 22.8 16.7 69 3.6 ENE 11 26 6 14 - - 0.0
22/10:00pm 23.1 23.2 16.6 67 4.0 ENE 11 17 6 9 - - 0.0
22/09:30pm 23.4 22.4 16.5 65 4.2 NE 17 28 9 15 - - 0.0
22/09:00pm 23.8 24.0 16.8 65 4.3 E 11 17 6 9 - - 0.0
22/08:30pm 23.9 23.9 17.3 66 4.1 ESE 13 19 7 10 - - 0.0
22/08:00pm 24.5 24.6 17.4 64 4.4 ESE 13 24 7 13 - - 0.0
22/07:30pm 25.0 25.3 17.1 61 4.9 SSE 11 15 6 8 - - 0.0
22/07:00pm 25.7 24.6 16.3 56 5.8 SSE 17 26 9 14 - - 0.0
22/06:30pm 25.9 24.7 16.1 54 6.0 SSE 17 28 9 15 - - 0.0
22/06:00pm 26.7 25.5 16.1 52 6.5 SSE 17 30 9 16 - - 0.0
22/05:30pm 27.2 25.4 16.0 50 6.9 SE 20 33 11 18 - - 0.0
22/05:00pm 27.8 25.0 15.3 46 7.6 SE 24 35 13 19 - - 0.0
22/04:30pm 28.8 26.3 15.2 43 8.3 SE 22 37 12 20 - - 0.0
22/04:00pm 29.3 27.4 15.3 42 8.6 SE 19 33 10 18 - - 0.0
22/03:30pm 30.1 28.0 15.1 40 9.2 SE 20 30 11 16 - - 0.0
22/03:00pm 30.1 29.0 14.2 38 9.6 SE 13 22 7 12 - - 0.0
22/02:30pm 29.6 28.2 13.5 37 9.6 ENE 13 26 7 14 - - 0.0
22/02:00pm 29.8 27.7 13.6 37 9.7 E 17 26 9 14 - - 0.0
22/01:30pm 29.3 28.1 14.0 39 9.2 E 13 26 7 14 - - 0.0
22/01:00pm 28.9 25.6 14.1 40 8.9 ESE 24 26 13 14 - - 0.0
22/12:30pm 27.8 25.5 13.0 40 8.7 ENE 17 26 9 14 - - 0.0
22/12:00pm 27.8 26.8 13.4 41 8.5 ESE 11 22 6 12 - - 0.0
22/11:30am 27.0 25.8 13.9 44 7.8 NNE 13 20 7 11 - - 0.0
22/11:00am 26.3 25.6 14.2 47 7.2 ENE 11 17 6 9 - - 0.0
22/10:30am 25.4 24.4 14.7 51 6.4 ESE 13 22 7 12 - - 0.0
22/10:00am 24.5 23.3 14.0 52 6.2 E 13 22 7 12 - - 0.0
22/09:30am 24.1 24.5 16.2 61 4.8 SE 9 13 5 7 - - 0.0
22/09:00am 22.9 23.6 17.0 69 3.6 ESE 9 13 5 7 - - 0.0
22/08:30am 20.8 22.0 16.9 78 2.4 E 6 9 3 5 - - 0.0
22/08:00am 18.2 20.4 16.5 90 1.0 CALM 0 0 0 0 - - 0.0
22/07:30am 16.1 16.7 15.2 94 0.5 NW 6 7 3 4 - - 0.0
22/07:00am 15.0 16.1 14.6 97 0.2 NNW 2 6 1 3 - - 0.0
22/06:30am 14.4 14.4 14.2 99 0.1 NW 7 7 4 4 - - 0.0
22/06:00am 14.6 15.9 14.2 97 0.2 CALM 0 4 0 2 - - 0.0
22/05:30am 14.8 15.1 14.6 99 0.1 NNW 6 7 3 4 - - 0.0
22/05:00am 15.2 15.4 14.7 97 0.3 NNW 7 7 4 4 - - 0.0
22/04:30am 15.4 15.7 14.9 97 0.3 WNW 7 7 4 4 - - 0.0
22/04:00am 15.9 16.5 15.4 97 0.3 N 6 7 3 4 - - 0.0
22/03:30am 17.5 19.1 16.0 91 0.9 SW 2 9 1 5 - - 0.0
22/03:00am 16.4 18.2 15.5 94 0.5 CALM 0 0 0 0 - - 0.0
22/02:30am 16.6 17.7 15.7 94 0.5 WNW 4 7 2 4 - - 0.0
22/02:00am 16.5 18.0 15.6 94 0.5 NW 2 7 1 4 - - 0.0
22/01:30am 16.5 17.2 15.6 94 0.5 NW 6 9 3 5 - - 0.0
22/01:00am 16.7 17.8 15.5 93 0.7 WNW 4 6 2 3 - - 0.0
22/12:30am 17.2 19.1 15.8 91 0.8 CALM 0 0 0 0 - - 0.0
22/12:00am 17.4 19.4 15.9 91 0.9 CALM 0 0 0 0 - - 0.0
 
Date/Time
EDT
Temp
°C
App
Temp
°C
Dew
Point
°C
Rel
Hum
%
Delta-T
°C
Wind Press
QNH
hPa
Press
MSL
hPa
Rain since
9am
mm
Dir  Spd
km/h
Gust
km/h
Spd
kts
Gust
kts
21/11:30pm 18.2 19.8 16.0 87 1.3 W 2 7 1 4 - - 0.0
21/11:00pm 19.2 19.8 15.8 81 2.0 WSW 7 9 4 5 - - 0.0
21/10:30pm 19.3 21.3 15.9 81 2.0 CALM 0 0 0 0 - - 0.0

Other Formats:

Comma delimited format used in spreadsheet applications
http://www.bom.gov.au/fwo/IDN60801/IDN60801.94775.axf

JavaScript Object Notation format (JSON) in row-major order
http://www.bom.gov.au/fwo/IDN60801/IDN60801.94775.json